Time;durP1;ratioP1;P1;durP2;ratioP2;P2;SDS_P1;SDS_P2;PMS_P1;PMS_P2;Temp;Humidity;BMP_temperature;BMP_pressure;BME280_temperature;BME280_humidity;BME280_pressure;Samples;Min_cycle;Max_cycle;Signal;HPM_P1;HPM_P2
2022/10/06 00:00:52;;;;;;;;;;;256.70;2252.80;;;;;;5101342;28;20451;-59
2022/10/06 00:03:21;;;;;;;;;;;256.70;2252.80;;;;;;5099453;28;20005;-59
2022/10/06 00:05:47;;;;;;;;;;;256.70;2252.80;;;;;;5098653;28;20353;-60
2022/10/06 00:08:13;;;;;;;;;;;256.70;2252.80;;;;;;5100604;28;20251;-60
2022/10/06 00:10:39;;;;;;;;;;;256.70;2252.80;;;;;;5099783;28;19934;-60
2022/10/06 00:13:04;;;;;;;;;;;256.60;2252.80;;;;;;5098789;28;20385;-59
2022/10/06 00:15:31;;;;;;;;;;;256.50;2252.80;;;;;;5100801;28;20002;-60
2022/10/06 00:17:56;;;;;;;;;;;256.40;2252.80;;;;;;5105783;28;20350;-61
2022/10/06 00:20:23;;;;;;;;;;;256.40;2252.80;;;;;;5110971;28;20003;-60
2022/10/06 00:22:51;;;;;;;;;;;256.50;2252.80;;;;;;5111282;28;19915;-59
2022/10/06 00:25:20;;;;;;;;;;;256.40;2252.80;;;;;;5111181;28;19948;-60
2022/10/06 00:27:47;;;;;;;;;;;256.50;2252.80;;;;;;5110946;28;19908;-60
2022/10/06 00:30:14;;;;;;;;;;;256.40;2252.80;;;;;;5110977;28;19911;-60
2022/10/06 00:32:40;;;;;;;;;;;256.50;2252.80;;;;;;5110854;28;19912;-60
2022/10/06 00:35:06;;;;;;;;;;;256.50;2252.80;;;;;;5110931;28;19923;-59
2022/10/06 00:37:35;;;;;;;;;;;256.50;2252.80;;;;;;5110793;28;19908;-60
2022/10/06 00:40:07;;;;;;;;;;;256.50;2252.80;;;;;;5111095;28;19908;-60
2022/10/06 00:42:33;;;;;;;;;;;256.50;2252.80;;;;;;5110769;28;19907;-60
2022/10/06 00:45:01;;;;;;;;;;;256.40;2252.80;;;;;;5111275;28;20459;-60
2022/10/06 00:47:29;;;;;;;;;;;256.20;2252.80;;;;;;5111262;28;20265;-59
2022/10/06 00:49:55;;;;;;;;;;;256.10;2252.80;;;;;;5109713;28;20379;-60
2022/10/06 00:52:23;;;;;;;;;;;256.00;2252.80;;;;;;5110909;28;19931;-59
2022/10/06 00:54:48;;;;;;;;;;;256.00;2252.80;;;;;;5110995;28;19912;-60
2022/10/06 00:57:14;;;;;;;;;;;231.30;2252.80;;;;;;5110797;28;19931;-60
2022/10/06 00:59:39;;;;;;;;;;;231.30;2252.80;;;;;;5110822;28;19912;-60
2022/10/06 01:02:08;;;;;;;;;;;231.30;2252.80;;;;;;5110537;28;19911;-60
2022/10/06 01:04:35;;;;;;;;;;;231.30;2252.80;;;;;;5110451;28;19933;-60
2022/10/06 01:07:01;;;;;;;;;;;231.30;2252.80;;;;;;5110619;28;20405;-60
2022/10/06 01:09:27;;;;;;;;;;;231.20;2252.80;;;;;;5110752;28;20021;-60
2022/10/06 01:11:54;;;;;;;;;;;231.20;2252.80;;;;;;5110448;28;19915;-60
2022/10/06 01:14:21;;;;;;;;;;;231.30;2252.80;;;;;;5110536;28;19922;-60
2022/10/06 01:16:50;;;;;;;;;;;256.00;2252.80;;;;;;5114379;28;19939;-60
2022/10/06 01:19:36;;;;;;;;;;;256.10;2252.80;;;;;;5114839;28;19933;-60
2022/10/06 01:22:04;;;;;;;;;;;256.10;2252.80;;;;;;5114462;28;20380;-60
2022/10/06 01:24:30;;;;;;;;;;;256.00;2252.80;;;;;;5113215;28;20352;-59
2022/10/06 01:26:56;;;;;;;;;;;256.00;2252.80;;;;;;5114456;28;19907;-60
2022/10/06 01:29:22;;;;;;;;;;;256.00;2252.80;;;;;;5114519;28;19919;-60
2022/10/06 01:31:48;;;;;;;;;;;256.00;2252.80;;;;;;5114658;28;19908;-60
2022/10/06 01:34:14;;;;;;;;;;;256.00;2252.80;;;;;;5114098;28;19923;-59
2022/10/06 01:36:40;;;;;;;;;;;256.10;2252.80;;;;;;5114415;28;20277;-59
2022/10/06 01:39:06;;;;;;;;;;;256.20;2252.80;;;;;;5114064;28;19915;-59
2022/10/06 01:41:32;;;;;;;;;;;256.20;2252.80;;;;;;5114133;28;19908;-60
2022/10/06 01:43:59;;;;;;;;;;;256.20;2252.80;;;;;;5114698;28;19911;-59
2022/10/06 01:46:24;;;;;;;;;;;256.10;2252.80;;;;;;5114106;28;19908;-60
2022/10/06 01:48:50;;;;;;;;;;;231.30;2252.80;;;;;;5114376;28;19915;-59
2022/10/06 01:51:15;;;;;;;;;;;231.30;2252.80;;;;;;5114007;28;19908;-60
2022/10/06 01:53:41;;;;;;;;;;;231.20;2252.80;;;;;;5113777;28;20006;-60
2022/10/06 01:56:07;;;;;;;;;;;231.20;2252.80;;;;;;5114470;28;19908;-60
2022/10/06 01:58:32;;;;;;;;;;;231.20;2252.80;;;;;;5114107;28;19912;-61
2022/10/06 02:01:02;;;;;;;;;;;231.30;2252.80;;;;;;5114289;28;19943;-60
2022/10/06 02:03:27;;;;;;;;;;;231.20;2252.80;;;;;;5114174;28;19961;-60
2022/10/06 02:05:54;;;;;;;;;;;231.20;2252.80;;;;;;5113547;28;19920;-60
2022/10/06 02:08:20;;;;;;;;;;;231.20;2252.80;;;;;;5113728;28;19912;-59
2022/10/06 02:10:45;;;;;;;;;;;231.20;2252.80;;;;;;5113528;28;19915;-59
2022/10/06 02:13:11;;;;;;;;;;;231.20;2252.80;;;;;;5113557;28;19934;-60
2022/10/06 02:15:37;;;;;;;;;;;231.20;2252.80;;;;;;5113719;28;19914;-60
2022/10/06 02:18:02;;;;;;;;;;;231.20;2252.80;;;;;;5113486;28;19912;-60
2022/10/06 02:20:28;;;;;;;;;;;231.20;2252.80;;;;;;5113781;28;20392;-58
2022/10/06 02:22:53;;;;;;;;;;;231.20;2252.80;;;;;;5113277;27;20382;-59
2022/10/06 02:25:19;;;;;;;;;;;231.20;2252.80;;;;;;5113455;28;19915;-58
2022/10/06 02:27:44;;;;;;;;;;;231.20;2252.80;;;;;;5113420;28;19912;-60
2022/10/06 02:30:10;;;;;;;;;;;231.20;2252.80;;;;;;5113552;28;20007;-57
2022/10/06 02:32:37;;;;;;;;;;;231.10;2252.80;;;;;;5113097;28;20345;-60
2022/10/06 02:35:03;;;;;;;;;;;231.10;2252.80;;;;;;5113180;28;20339;-60
2022/10/06 02:37:29;;;;;;;;;;;231.20;2252.80;;;;;;5113427;28;19983;-59
2022/10/06 02:39:55;;;;;;;;;;;231.20;2252.80;;;;;;5113092;27;19953;-60
2022/10/06 02:42:21;;;;;;;;;;;231.10;2252.80;;;;;;5113398;28;20748;-60
2022/10/06 02:44:48;;;;;;;;;;;231.10;2252.80;;;;;;5104923;28;19957;-58
2022/10/06 02:47:13;;;;;;;;;;;231.00;2252.80;;;;;;5092676;28;19908;-59
2022/10/06 02:49:39;;;;;;;;;;;231.00;2252.80;;;;;;5092858;28;19915;-60
2022/10/06 02:52:04;;;;;;;;;;;231.00;2252.80;;;;;;5092680;28;19908;-59
2022/10/06 02:54:30;;;;;;;;;;;231.00;2252.80;;;;;;5092739;28;20362;-61
2022/10/06 02:56:55;;;;;;;;;;;231.00;2252.80;;;;;;5092444;28;20034;-59
2022/10/06 02:59:21;;;;;;;;;;;231.00;2252.80;;;;;;5092823;28;19912;-60
2022/10/06 03:01:46;;;;;;;;;;;231.00;2252.80;;;;;;5092534;28;19943;-60
2022/10/06 03:04:12;;;;;;;;;;;231.00;2252.80;;;;;;5092231;28;20363;-59
2022/10/06 03:06:38;;;;;;;;;;;231.00;2252.80;;;;;;5092367;28;19932;-59
2022/10/06 03:09:04;;;;;;;;;;;231.10;2252.80;;;;;;5092109;28;19951;-60
2022/10/06 03:11:31;;;;;;;;;;;231.00;2252.80;;;;;;5092489;28;19999;-59
2022/10/06 03:13:57;;;;;;;;;;;231.10;2252.80;;;;;;5092285;28;20377;-60
2022/10/06 03:16:24;;;;;;;;;;;231.00;2252.80;;;;;;5092057;28;19912;-59
2022/10/06 03:18:50;;;;;;;;;;;231.00;2252.80;;;;;;5092578;28;19909;-59
2022/10/06 03:21:17;;;;;;;;;;;231.00;2252.80;;;;;;5091872;28;19915;-59
2022/10/06 03:23:43;;;;;;;;;;;231.00;2252.80;;;;;;5091937;28;19912;-60
2022/10/06 03:26:09;;;;;;;;;;;231.00;2252.80;;;;;;5091965;28;19916;-60
2022/10/06 03:28:34;;;;;;;;;;;231.10;2252.80;;;;;;5092031;28;19908;-60
2022/10/06 03:31:01;;;;;;;;;;;231.00;2252.80;;;;;;5092141;28;20068;-61
2022/10/06 03:33:27;;;;;;;;;;;231.00;2252.80;;;;;;5091772;28;20429;-60
2022/10/06 03:36:06;;;;;;;;;;;230.90;2252.80;;;;;;5091755;28;20113;-59
2022/10/06 03:38:32;;;;;;;;;;;230.90;2252.80;;;;;;5091041;28;20004;-60
2022/10/06 03:41:02;;;;;;;;;;;230.90;2252.80;;;;;;5091914;28;19912;-60
2022/10/06 03:43:27;;;;;;;;;;;230.90;2252.80;;;;;;5091791;28;19908;-58
2022/10/06 03:45:56;;;;;;;;;;;230.90;2252.80;;;;;;5091470;28;19915;-59
2022/10/06 03:48:22;;;;;;;;;;;230.90;2252.80;;;;;;5091330;28;20269;-60
2022/10/06 03:50:54;;;;;;;;;;;230.90;2252.80;;;;;;5091629;28;19991;-60
2022/10/06 03:53:24;;;;;;;;;;;230.90;2252.80;;;;;;5091516;28;19930;-59
2022/10/06 03:56:03;;;;;;;;;;;230.90;2252.80;;;;;;5091461;28;19908;-59
2022/10/06 03:58:29;;;;;;;;;;;230.90;2252.80;;;;;;5091569;28;19915;-60
2022/10/06 04:01:02;;;;;;;;;;;230.90;2252.80;;;;;;5091267;28;19908;-60
2022/10/06 04:03:28;;;;;;;;;;;230.80;2252.80;;;;;;5091636;28;19935;-59
2022/10/06 04:05:55;;;;;;;;;;;230.80;2252.80;;;;;;5090937;28;20367;-59
2022/10/06 04:08:21;;;;;;;;;;;230.80;2252.80;;;;;;5090966;28;19912;-60
2022/10/06 04:10:46;;;;;;;;;;;230.80;2252.80;;;;;;5091025;28;20006;-59
2022/10/06 04:13:14;;;;;;;;;;;230.80;2252.80;;;;;;5091100;28;19912;-59
2022/10/06 04:15:39;;;;;;;;;;;230.80;2252.80;;;;;;5091158;28;20442;-59
2022/10/06 04:18:05;;;;;;;;;;;230.70;2252.80;;;;;;5091007;28;19999;-58
2022/10/06 04:20:31;;;;;;;;;;;230.70;2252.80;;;;;;5090890;28;19919;-59
2022/10/06 04:22:56;;;;;;;;;;;230.70;2252.80;;;;;;5091090;28;19915;-60
2022/10/06 04:25:22;;;;;;;;;;;230.70;2252.80;;;;;;5091031;28;20337;-60
2022/10/06 04:27:48;;;;;;;;;;;230.70;2252.80;;;;;;5091165;28;19931;-60
2022/10/06 04:30:14;;;;;;;;;;;230.70;2252.80;;;;;;5090778;28;20278;-59
2022/10/06 04:32:39;;;;;;;;;;;230.70;2252.80;;;;;;5090743;28;19915;-59
2022/10/06 04:35:05;;;;;;;;;;;230.70;2252.80;;;;;;5090578;28;20285;-59
2022/10/06 04:37:30;;;;;;;;;;;230.70;2252.80;;;;;;5089042;28;20338;-60
2022/10/06 04:39:56;;;;;;;;;;;230.50;2252.80;;;;;;5090353;28;19908;-60
2022/10/06 04:42:22;;;;;;;;;;;230.70;2252.80;;;;;;5090582;28;19919;-60
2022/10/06 04:44:47;;;;;;;;;;;230.70;2252.80;;;;;;5090831;28;19914;-59
2022/10/06 04:47:13;;;;;;;;;;;230.70;2252.80;;;;;;5089840;28;19958;-59
2022/10/06 04:49:38;;;;;;;;;;;230.70;2252.80;;;;;;5089399;28;19908;-59
2022/10/06 04:52:04;;;;;;;;;;;230.70;2252.80;;;;;;5089780;28;19908;-59
2022/10/06 04:54:29;;;;;;;;;;;230.80;2252.80;;;;;;5089917;28;19926;-59
2022/10/06 04:56:56;;;;;;;;;;;230.80;2252.80;;;;;;5090120;28;19915;-59
2022/10/06 05:00:21;;;;;;;;;;;230.90;2252.80;;;;;;5090191;28;19908;-60
2022/10/06 05:02:07;;;;;;;;;;;230.90;2252.80;;;;;;5096092;28;20381;-59
2022/10/06 05:04:33;;;;;;;;;;;231.10;2252.80;;;;;;5103755;28;19920;-60
2022/10/06 05:06:58;;;;;;;;;;;231.10;2252.80;;;;;;5109927;28;19923;-59
2022/10/06 05:09:24;;;;;;;;;;;231.30;2252.80;;;;;;5109301;28;19908;-60
2022/10/06 05:11:49;;;;;;;;;;;231.30;2252.80;;;;;;5109848;28;19908;-60
2022/10/06 05:14:15;;;;;;;;;;;256.10;2252.80;;;;;;5106283;28;20017;-60
2022/10/06 05:16:41;;;;;;;;;;;256.20;2252.80;;;;;;5110080;28;20041;-60
2022/10/06 05:19:07;;;;;;;;;;;256.30;2252.80;;;;;;5109683;28;19915;-60
2022/10/06 05:21:33;;;;;;;;;;;256.50;2252.80;;;;;;5109566;28;19916;-60
2022/10/06 05:23:59;;;;;;;;;;;256.60;2252.80;;;;;;5109840;28;19915;-59
2022/10/06 05:26:25;;;;;;;;;;;256.80;2252.80;;;;;;5099686;28;20353;-60
2022/10/06 05:28:51;;;;;;;;;;;256.90;2252.80;;;;;;5098207;28;20374;-60
2022/10/06 05:31:27;;;;;;;;;;;281.70;2278.40;;;;;;5100100;28;19918;-60
2022/10/06 05:33:53;;;;;;;;;;;281.90;2278.40;;;;;;5088167;28;19924;-59
2022/10/06 05:36:20;;;;;;;;;;;281.90;2278.40;;;;;;5088900;28;19912;-57
2022/10/06 05:38:46;;;;;;;;;;;282.00;2278.40;;;;;;5088559;28;19908;-57
2022/10/06 05:41:19;;;;;;;;;;;282.10;2278.40;;;;;;5089673;28;19915;-60
2022/10/06 05:43:45;;;;;;;;;;;282.30;2278.40;;;;;;5088600;28;20350;-58
2022/10/06 05:46:16;;;;;;;;;;;282.50;2278.40;;;;;;5088814;28;19919;-60
2022/10/06 05:48:44;;;;;;;;;;;307.30;2304.00;;;;;;5088663;28;20457;-59
2022/10/06 05:51:09;;;;;;;;;;;307.40;2304.00;;;;;;5086113;28;19908;-60
2022/10/06 05:53:35;;;;;;;;;;;307.60;2304.00;;;;;;5088419;28;20425;-60
2022/10/06 05:56:11;;;;;;;;;;;307.80;2304.00;;;;;;5088856;28;19916;-62
2022/10/06 05:58:38;;;;;;;;;;;308.00;2304.00;;;;;;5087398;28;19908;-60
2022/10/06 06:01:14;;;;;;;;;;;308.10;2304.00;;;;;;5089088;28;20397;-58
2022/10/06 06:03:41;;;;;;;;;;;332.90;2329.60;;;;;;5092298;28;19916;-57
2022/10/06 06:06:24;;;;;;;;;;;333.70;2329.60;;;;;;5091689;28;19924;-60
2022/10/06 06:08:51;;;;;;;;;;;384.30;2329.60;;;;;;5093367;28;19908;-59
2022/10/06 06:11:16;;;;;;;;;;;410.00;2355.20;;;;;;5093390;28;19943;-61
2022/10/06 06:13:42;;;;;;;;;;;435.60;2355.20;;;;;;5093159;28;20009;-61
2022/10/06 06:16:12;;;;;;;;;;;461.40;2252.80;;;;;;5093530;28;19954;-60
2022/10/06 06:18:37;;;;;;;;;;;486.40;2124.80;;;;;;5093302;28;19961;-61
2022/10/06 06:21:04;;;;;;;;;;;486.80;2073.60;;;;;;5093049;28;19912;-59
2022/10/06 06:23:50;;;;;;;;;;;512.00;1971.20;;;;;;5093314;28;19909;-61
2022/10/06 06:26:17;;;;;;;;;;;512.30;1945.60;;;;;;5092598;28;19908;-61
2022/10/06 06:28:45;;;;;;;;;;;512.80;1894.40;;;;;;5092909;28;19991;-62
2022/10/06 06:31:12;;;;;;;;;;;512.40;1920.00;;;;;;5093124;28;19908;-61
2022/10/06 06:33:39;;;;;;;;;;;487.10;1945.60;;;;;;5092884;28;20380;-61
2022/10/06 06:36:18;;;;;;;;;;;487.20;1971.20;;;;;;5092935;28;19927;-59
2022/10/06 06:38:50;;;;;;;;;;;512.20;1894.40;;;;;;5092700;28;19962;-61
2022/10/06 06:41:20;;;;;;;;;;;538.20;1868.80;;;;;;5092857;28;19996;-61
2022/10/06 06:43:46;;;;;;;;;;;564.10;1740.80;;;;;;5092622;28;19909;-61
2022/10/06 06:46:13;;;;;;;;;;;614.60;1638.40;;;;;;5092946;28;19908;-62
2022/10/06 06:48:39;;;;;;;;;;;589.50;1664.00;;;;;;5092944;28;20007;-61
2022/10/06 06:51:06;;;;;;;;;;;589.10;1689.60;;;;;;5092529;28;19908;-60
2022/10/06 06:53:32;;;;;;;;;;;614.50;1638.40;;;;;;5092575;28;20012;-61
2022/10/06 06:55:57;;;;;;;;;;;564.10;1740.80;;;;;;5092745;28;19963;-61
2022/10/06 06:58:23;;;;;;;;;;;589.60;1689.60;;;;;;5092785;28;19912;-62
2022/10/06 07:00:48;;;;;;;;;;;614.80;1612.80;;;;;;5092685;28;20383;-59
2022/10/06 07:03:16;;;;;;;;;;;589.50;1689.60;;;;;;5091586;28;19912;-62
2022/10/06 07:05:44;;;;;;;;;;;640.00;1587.20;;;;;;5092072;28;19923;-60
2022/10/06 07:08:10;;;;;;;;;;;614.80;1587.20;;;;;;5092360;28;19918;-61
2022/10/06 07:10:36;;;;;;;;;;;614.90;1587.20;;;;;;5091968;28;20015;-63
2022/10/06 07:13:02;;;;;;;;;;;665.90;1536.00;;;;;;5091221;28;20370;-59
2022/10/06 07:26:35;;;;;;;;;;;691.30;1459.20;;;;;;5091970;28;20008;-62
2022/10/06 07:29:01;;;;;;;;;;;717.10;1433.60;;;;;;5092210;28;20533;-59
2022/10/06 07:31:32;;;;;;;;;;;692.00;1433.60;;;;;;5091667;28;19916;-59
2022/10/06 07:34:01;;;;;;;;;;;691.80;1433.60;;;;;;5091739;28;19924;-58
2022/10/06 07:36:27;;;;;;;;;;;717.10;1408.00;;;;;;5091555;28;20002;-62
2022/10/06 07:38:54;;;;;;;;;;;742.50;1382.40;;;;;;5091682;28;19999;-61
2022/10/06 07:41:19;;;;;;;;;;;742.60;1382.40;;;;;;5091501;28;19912;-60
2022/10/06 07:43:45;;;;;;;;;;;742.60;1408.00;;;;;;5091446;28;20015;-61
2022/10/06 07:46:11;;;;;;;;;;;743.00;1356.80;;;;;;5091585;28;19908;-60
2022/10/06 07:48:37;;;;;;;;;;;742.90;1356.80;;;;;;5091618;28;19908;-59
2022/10/06 07:51:05;;;;;;;;;;;717.70;1382.40;;;;;;5091453;28;19912;-61
2022/10/06 07:53:31;;;;;;;;;;;717.20;1408.00;;;;;;5091687;28;19955;-59
2022/10/06 07:56:03;;;;;;;;;;;742.90;1356.80;;;;;;5091537;28;19919;-62
2022/10/06 07:58:28;;;;;;;;;;;742.60;1408.00;;;;;;5090188;28;19927;-63
2022/10/06 08:00:54;;;;;;;;;;;793.60;1331.20;;;;;;5089734;28;19909;-61
2022/10/06 08:03:19;;;;;;;;;;;794.20;1305.60;;;;;;5089779;28;19912;-64
2022/10/06 08:05:46;;;;;;;;;;;793.80;1331.20;;;;;;5089562;28;19920;-59
2022/10/06 08:08:13;;;;;;;;;;;793.90;1305.60;;;;;;5089996;28;20433;-58
2022/10/06 08:10:39;;;;;;;;;;;793.70;1331.20;;;;;;5089778;28;19991;-64
2022/10/06 08:13:05;;;;;;;;;;;768.80;1305.60;;;;;;5089512;28;20019;-59
2022/10/06 08:15:31;;;;;;;;;;;794.20;1280.00;;;;;;5089768;28;20071;-60
2022/10/06 08:18:00;;;;;;;;;;;768.40;1305.60;;;;;;5089504;28;19966;-60
2022/10/06 08:20:26;;;;;;;;;;;794.20;1280.00;;;;;;5089435;28;19969;-59
2022/10/06 08:22:52;;;;;;;;;;;793.90;1280.00;;;;;;5089670;28;19912;-59
2022/10/06 08:25:17;;;;;;;;;;;819.20;1280.00;;;;;;5089180;28;19915;-60
2022/10/06 08:27:43;;;;;;;;;;;844.90;1203.20;;;;;;5089573;28;19955;-60
2022/10/06 08:30:09;;;;;;;;;;;845.30;1177.60;;;;;;5089443;28;19908;-58
2022/10/06 08:32:35;;;;;;;;;;;819.40;1228.80;;;;;;5089365;28;20388;-60
2022/10/06 08:35:00;;;;;;;;;;;819.40;1177.60;;;;;;5090800;28;19916;-59
2022/10/06 08:37:26;;;;;;;;;;;844.90;1203.20;;;;;;5090809;28;19920;-60
2022/10/06 08:39:52;;;;;;;;;;;819.50;1152.00;;;;;;5090829;28;19945;-60
2022/10/06 08:42:26;;;;;;;;;;;844.90;1126.40;;;;;;5090139;28;19919;-60
2022/10/06 08:44:58;;;;;;;;;;;768.50;1203.20;;;;;;5086002;28;19977;-60
2022/10/06 08:47:26;;;;;;;;;;;743.30;1254.40;;;;;;5087691;28;19920;-60
2022/10/06 08:49:53;;;;;;;;;;;768.40;1228.80;;;;;;5087320;28;19913;-59
2022/10/06 08:52:34;;;;;;;;;;;819.60;1203.20;;;;;;5086548;28;19908;-60
2022/10/06 08:55:09;;;;;;;;;;;820.10;1177.60;;;;;;5088018;28;19916;-61
2022/10/06 08:57:41;;;;;;;;;;;819.90;1177.60;;;;;;5087211;28;19916;-60
2022/10/06 09:00:10;;;;;;;;;;;793.80;1203.20;;;;;;5087585;28;19908;-58
2022/10/06 09:02:38;;;;;;;;;;;768.90;1228.80;;;;;;5087583;28;19954;-59
2022/10/06 09:05:04;;;;;;;;;;;768.40;1228.80;;;;;;5087656;28;19920;-59
2022/10/06 09:07:37;;;;;;;;;;;742.40;1305.60;;;;;;5086929;28;20285;-60
2022/10/06 09:10:23;;;;;;;;;;;691.60;1305.60;;;;;;5086597;28;20462;-59
2022/10/06 09:13:09;;;;;;;;;;;666.00;1382.40;;;;;;5087298;28;19915;-60
2022/10/06 09:15:39;;;;;;;;;;;640.80;1382.40;;;;;;5081892;28;19916;-60
2022/10/06 09:18:27;;;;;;;;;;;640.20;1433.60;;;;;;5087723;28;19955;-59
2022/10/06 09:20:55;;;;;;;;;;;640.50;1408.00;;;;;;5086698;28;20318;-60
2022/10/06 09:24:07;;;;;;;;;;;640.60;1433.60;;;;;;5086482;28;19919;-60
2022/10/06 09:26:10;;;;;;;;;;;640.50;1433.60;;;;;;5086973;28;19908;-60
2022/10/06 09:28:36;;;;;;;;;;;640.00;1433.60;;;;;;5087391;28;19947;-58
2022/10/06 09:31:02;;;;;;;;;;;640.30;1459.20;;;;;;5087923;28;19970;-59
2022/10/06 09:33:32;;;;;;;;;;;640.70;1459.20;;;;;;5087429;28;19929;-59
2022/10/06 09:36:09;;;;;;;;;;;640.50;1433.60;;;;;;5088245;28;19920;-59
2022/10/06 09:38:46;;;;;;;;;;;640.10;1484.80;;;;;;5091062;28;19908;-60
2022/10/06 09:41:12;;;;;;;;;;;640.20;1484.80;;;;;;5090487;28;19912;-59
2022/10/06 09:43:38;;;;;;;;;;;640.20;1510.40;;;;;;5089569;28;19924;-60
2022/10/06 09:46:17;;;;;;;;;;;615.10;1484.80;;;;;;5091628;28;20019;-59
2022/10/06 09:48:43;;;;;;;;;;;615.20;1510.40;;;;;;5090162;28;19927;-58
2022/10/06 09:51:16;;;;;;;;;;;615.00;1536.00;;;;;;5092508;28;20292;-57
2022/10/06 09:53:42;;;;;;;;;;;589.70;1561.60;;;;;;5089248;28;20011;-59
2022/10/06 09:56:18;;;;;;;;;;;589.60;1561.60;;;;;;5090877;28;19908;-59
2022/10/06 09:59:02;;;;;;;;;;;614.50;1561.60;;;;;;5090014;28;19973;-60
2022/10/06 10:01:28;;;;;;;;;;;614.50;1612.80;;;;;;5091548;28;19908;-59
2022/10/06 10:03:59;;;;;;;;;;;614.80;1587.20;;;;;;5092008;28;20271;-60
2022/10/06 10:06:31;;;;;;;;;;;614.80;1561.60;;;;;;5091978;28;20010;-58
2022/10/06 10:09:17;;;;;;;;;;;614.90;1536.00;;;;;;5092309;28;19912;-60
2022/10/06 10:14:34;;;;;;;;;;;614.90;1561.60;;;;;;5093297;28;20438;-59
2022/10/06 10:17:06;;;;;;;;;;;614.50;1587.20;;;;;;5093018;28;19919;-59
2022/10/06 10:19:36;;;;;;;;;;;614.80;1561.60;;;;;;5093191;28;20270;-59
2022/10/06 10:22:02;;;;;;;;;;;614.40;1638.40;;;;;;5092506;28;19961;-59
2022/10/06 10:24:52;;;;;;;;;;;589.20;1638.40;;;;;;5092007;28;20015;-60
2022/10/06 10:27:21;;;;;;;;;;;588.90;1689.60;;;;;;5092956;28;19919;-59
2022/10/06 10:29:58;;;;;;;;;;;564.10;1689.60;;;;;;5092821;28;19953;-60
2022/10/06 10:32:29;;;;;;;;;;;564.00;1715.20;;;;;;5092773;28;19991;-60
2022/10/06 10:35:15;;;;;;;;;;;589.00;1715.20;;;;;;5092083;28;19973;-59
2022/10/06 10:37:59;;;;;;;;;;;589.10;1715.20;;;;;;5090416;28;20270;-60
2022/10/06 10:40:36;;;;;;;;;;;564.10;1740.80;;;;;;5090712;28;20324;-58
2022/10/06 10:43:08;;;;;;;;;;;564.10;1740.80;;;;;;5092586;28;19919;-59
2022/10/06 10:45:37;;;;;;;;;;;564.00;1715.20;;;;;;5090588;28;19915;-59
2022/10/06 10:48:09;;;;;;;;;;;564.10;1740.80;;;;;;5092172;28;19918;-59
2022/10/06 10:50:38;;;;;;;;;;;563.80;1766.40;;;;;;5092018;28;20381;-59
2022/10/06 10:53:09;;;;;;;;;;;564.10;1740.80;;;;;;5092152;28;19920;-58
2022/10/06 10:55:38;;;;;;;;;;;563.80;1740.80;;;;;;5092244;28;19915;-58
2022/10/06 10:58:10;;;;;;;;;;;563.90;1766.40;;;;;;5090574;28;19912;-58
2022/10/06 11:00:40;;;;;;;;;;;563.90;1766.40;;;;;;5089677;28;19954;-57
2022/10/06 11:03:08;;;;;;;;;;;564.00;1740.80;;;;;;5090439;28;19916;-59
2022/10/06 11:05:52;;;;;;;;;;;564.10;1740.80;;;;;;5090626;28;20298;-58
2022/10/06 11:08:42;;;;;;;;;;;563.90;1740.80;;;;;;5090730;28;20266;-59
2022/10/06 11:11:14;;;;;;;;;;;564.00;1689.60;;;;;;5090511;28;19908;-59
2022/10/06 11:13:44;;;;;;;;;;;564.00;1715.20;;;;;;5090259;28;19920;-59
2022/10/06 11:16:19;;;;;;;;;;;564.10;1715.20;;;;;;5091229;28;20007;-60
2022/10/06 11:19:07;;;;;;;;;;;564.10;1715.20;;;;;;5092362;28;20270;-59
2022/10/06 11:21:33;;;;;;;;;;;588.90;1715.20;;;;;;5091688;28;19934;-60
2022/10/06 11:24:07;;;;;;;;;;;588.80;1715.20;;;;;;5091804;28;19974;-60
2022/10/06 11:26:56;;;;;;;;;;;564.10;1689.60;;;;;;5088715;28;20066;-60
2022/10/06 11:29:40;;;;;;;;;;;588.80;1740.80;;;;;;5091806;28;19915;-60
2022/10/06 11:32:23;;;;;;;;;;;589.00;1689.60;;;;;;5091312;28;19919;-60
2022/10/06 11:34:50;;;;;;;;;;;589.40;1689.60;;;;;;5088820;28;19971;-59
2022/10/06 11:37:28;;;;;;;;;;;589.40;1689.60;;;;;;5091639;28;19912;-60
2022/10/06 11:39:54;;;;;;;;;;;589.50;1689.60;;;;;;5091486;28;19908;-60
2022/10/06 11:42:29;;;;;;;;;;;589.50;1689.60;;;;;;5091586;28;19916;-60
2022/10/06 11:44:54;;;;;;;;;;;589.50;1664.00;;;;;;5091275;28;20002;-60
2022/10/06 11:47:25;;;;;;;;;;;589.60;1689.60;;;;;;5091733;28;19943;-60
2022/10/06 11:49:57;;;;;;;;;;;589.40;1664.00;;;;;;5091210;28;19960;-59
2022/10/06 11:52:22;;;;;;;;;;;589.40;1664.00;;;;;;5091086;28;20010;-60
2022/10/06 11:54:48;;;;;;;;;;;589.40;1638.40;;;;;;5091264;28;20006;-59
2022/10/06 11:57:22;;;;;;;;;;;589.40;1689.60;;;;;;5091005;28;20255;-60
2022/10/06 11:59:49;;;;;;;;;;;589.50;1664.00;;;;;;5090752;28;19916;-60
2022/10/06 12:02:33;;;;;;;;;;;589.50;1664.00;;;;;;5090191;28;19942;-60
2022/10/06 12:05:25;;;;;;;;;;;589.50;1638.40;;;;;;5091071;28;19912;-59
2022/10/06 12:07:54;;;;;;;;;;;589.70;1664.00;;;;;;5089937;28;19923;-59
2022/10/06 12:10:42;;;;;;;;;;;589.10;1612.80;;;;;;5090577;28;19908;-60
2022/10/06 12:13:26;;;;;;;;;;;589.00;1612.80;;;;;;5090738;28;20300;-60
2022/10/06 12:15:52;;;;;;;;;;;589.10;1664.00;;;;;;5091192;28;19912;-60
2022/10/06 12:18:31;;;;;;;;;;;564.10;1638.40;;;;;;5090872;28;19916;-60
2022/10/06 12:20:57;;;;;;;;;;;588.80;1612.80;;;;;;5091134;28;19908;-60
2022/10/06 12:23:23;;;;;;;;;;;588.80;1638.40;;;;;;5090719;28;19929;-60
2022/10/06 12:25:54;;;;;;;;;;;589.00;1638.40;;;;;;5090428;28;19908;-59
2022/10/06 12:28:32;;;;;;;;;;;589.00;1638.40;;;;;;5087297;28;20299;-60
2022/10/06 12:31:01;;;;;;;;;;;589.00;1664.00;;;;;;5085743;28;19912;-60
2022/10/06 12:33:34;;;;;;;;;;;589.20;1689.60;;;;;;5089738;28;19948;-60
2022/10/06 12:36:20;;;;;;;;;;;589.00;1638.40;;;;;;5088876;28;19916;-61
2022/10/06 12:39:06;;;;;;;;;;;589.10;1638.40;;;;;;5087808;28;19955;-61
2022/10/06 12:41:54;;;;;;;;;;;589.30;1664.00;;;;;;5088966;28;19908;-61
2022/10/06 12:44:25;;;;;;;;;;;589.40;1689.60;;;;;;5083256;28;19944;-60
2022/10/06 12:46:52;;;;;;;;;;;589.40;1638.40;;;;;;5088744;28;20286;-61
2022/10/06 12:49:35;;;;;;;;;;;589.60;1638.40;;;;;;5089350;28;20239;-61
2022/10/06 12:52:27;;;;;;;;;;;589.60;1664.00;;;;;;5089102;28;19939;-61
2022/10/06 12:55:09;;;;;;;;;;;589.50;1638.40;;;;;;5072472;28;19931;-60
2022/10/06 12:57:48;;;;;;;;;;;589.40;1638.40;;;;;;5088686;28;19909;-61
2022/10/06 13:00:23;;;;;;;;;;;589.50;1612.80;;;;;;5088391;28;20015;-60
2022/10/06 13:02:52;;;;;;;;;;;589.40;1612.80;;;;;;5088885;28;19919;-60
2022/10/06 13:05:18;;;;;;;;;;;589.40;1638.40;;;;;;5088954;28;20362;-60
2022/10/06 13:08:03;;;;;;;;;;;589.50;1638.40;;;;;;5088156;28;19923;-61
2022/10/06 13:10:31;;;;;;;;;;;589.20;1638.40;;;;;;5089012;28;20292;-60
2022/10/06 13:12:57;;;;;;;;;;;589.40;1664.00;;;;;;5092098;28;19915;-61
2022/10/06 13:15:27;;;;;;;;;;;589.60;1638.40;;;;;;5092814;28;20278;-59
2022/10/06 13:17:56;;;;;;;;;;;589.50;1612.80;;;;;;5092557;28;20405;-60
2022/10/06 13:20:31;;;;;;;;;;;589.70;1638.40;;;;;;5092799;28;19963;-61
2022/10/06 13:22:58;;;;;;;;;;;589.40;1612.80;;;;;;5092707;28;19916;-60
2022/10/06 13:25:25;;;;;;;;;;;589.20;1612.80;;;;;;5092773;28;19923;-60
2022/10/06 13:27:50;;;;;;;;;;;588.80;1612.80;;;;;;5092630;28;19947;-60
2022/10/06 13:30:20;;;;;;;;;;;588.90;1638.40;;;;;;5092382;28;19958;-60
2022/10/06 13:32:50;;;;;;;;;;;589.10;1638.40;;;;;;5092268;28;19912;-60
2022/10/06 13:35:16;;;;;;;;;;;589.10;1612.80;;;;;;5092439;28;20409;-60
2022/10/06 13:37:42;;;;;;;;;;;589.30;1664.00;;;;;;5092554;28;19912;-60
2022/10/06 13:40:14;;;;;;;;;;;589.00;1638.40;;;;;;5092383;28;19915;-60
2022/10/06 13:42:44;;;;;;;;;;;588.80;1638.40;;;;;;5092468;28;19912;-60
2022/10/06 13:45:13;;;;;;;;;;;589.20;1638.40;;;;;;5092796;28;20286;-60
2022/10/06 13:47:39;;;;;;;;;;;588.90;1612.80;;;;;;5092441;28;19908;-60
2022/10/06 13:50:13;;;;;;;;;;;588.80;1638.40;;;;;;5092096;28;19916;-60
2022/10/06 13:52:47;;;;;;;;;;;588.80;1638.40;;;;;;5091984;28;20269;-59
2022/10/06 13:55:22;;;;;;;;;;;589.00;1638.40;;;;;;5092080;28;19959;-61
2022/10/06 13:57:50;;;;;;;;;;;589.00;1638.40;;;;;;5092213;28;19912;-60
2022/10/06 14:00:18;;;;;;;;;;;588.90;1612.80;;;;;;5092016;28;20006;-60
2022/10/06 14:02:44;;;;;;;;;;;588.80;1638.40;;;;;;5091822;28;19919;-61
2022/10/06 14:05:25;;;;;;;;;;;589.00;1638.40;;;;;;5091914;28;20331;-60
2022/10/06 14:07:54;;;;;;;;;;;588.80;1638.40;;;;;;5090878;28;20382;-60